Terminal Aerodrome Forecast
Issued by NWS

Home | Current Version | Previous Version | Text Only | Print | Product List | Glossary On
Versions: 1 2 3 4 5 6 7 8 9 10 11 12 13
000
FTAK31 PANC 241953 AAA
TAFAVD
TAF AMD
PAVD 241953Z 2420/2518 VRB03KT P6SM BKN035 BKN200
     FM242300 VRB03KT 2SM -SN OVC015
     FM250400 07007KT 5SM -SHSN BKN020 BKN060
     FM250700 06006G12KT P6SM SCT030
     FM251200 06015G25KT P6SM SCT030
      AMD LTD TO CLD VIS AND WIND=

USA.gov is the U.S. government's official web portal to all federal, state and local government web resources and services.